sensor_id;sensor_type;location;lat;lon;timestamp;P1;durP1;ratioP1;P2;durP2;ratioP2
57303;SDS011;43150;50.986;18.208;2023-09-30T00:01:46;8.70;;;6.80;;
57303;SDS011;43150;50.986;18.208;2023-09-30T00:04:13;11.90;;;7.60;;
57303;SDS011;43150;50.986;18.208;2023-09-30T00:06:38;9.70;;;8.00;;
57303;SDS011;43150;50.986;18.208;2023-09-30T00:09:04;13.70;;;7.90;;
57303;SDS011;43150;50.986;18.208;2023-09-30T00:11:30;9.50;;;7.60;;
57303;SDS011;43150;50.986;18.208;2023-09-30T00:13:56;8.70;;;7.60;;
57303;SDS011;43150;50.986;18.208;2023-09-30T00:16:21;9.90;;;7.50;;
57303;SDS011;43150;50.986;18.208;2023-09-30T00:18:47;11.10;;;7.90;;
57303;SDS011;43150;50.986;18.208;2023-09-30T00:21:12;11.80;;;8.30;;
57303;SDS011;43150;50.986;18.208;2023-09-30T00:23:38;10.90;;;7.30;;
57303;SDS011;43150;50.986;18.208;2023-09-30T00:26:03;12.30;;;8.10;;
57303;SDS011;43150;50.986;18.208;2023-09-30T00:28:30;10.40;;;8.00;;
57303;SDS011;43150;50.986;18.208;2023-09-30T00:30:55;8.80;;;7.90;;
57303;SDS011;43150;50.986;18.208;2023-09-30T00:33:21;10.70;;;8.10;;
57303;SDS011;43150;50.986;18.208;2023-09-30T00:35:47;11.70;;;8.10;;
57303;SDS011;43150;50.986;18.208;2023-09-30T00:38:12;11.40;;;8.10;;
57303;SDS011;43150;50.986;18.208;2023-09-30T00:40:37;14.20;;;8.10;;
57303;SDS011;43150;50.986;18.208;2023-09-30T00:43:03;10.20;;;7.40;;
57303;SDS011;43150;50.986;18.208;2023-09-30T00:45:29;10.30;;;7.40;;
57303;SDS011;43150;50.986;18.208;2023-09-30T00:47:55;12.80;;;8.40;;
57303;SDS011;43150;50.986;18.208;2023-09-30T00:50:21;10.50;;;7.60;;
57303;SDS011;43150;50.986;18.208;2023-09-30T00:52:47;10.90;;;7.30;;
57303;SDS011;43150;50.986;18.208;2023-09-30T00:55:14;10.20;;;7.80;;
57303;SDS011;43150;50.986;18.208;2023-09-30T00:57:40;11.50;;;7.10;;
57303;SDS011;43150;50.986;18.208;2023-09-30T01:00:06;10.50;;;7.90;;
57303;SDS011;43150;50.986;18.208;2023-09-30T01:02:33;10.70;;;7.90;;
57303;SDS011;43150;50.986;18.208;2023-09-30T01:05:00;10.20;;;7.30;;
57303;SDS011;43150;50.986;18.208;2023-09-30T01:07:26;10.10;;;7.40;;
57303;SDS011;43150;50.986;18.208;2023-09-30T01:09:52;9.40;;;7.50;;
57303;SDS011;43150;50.986;18.208;2023-09-30T01:12:17;13.10;;;7.80;;
57303;SDS011;43150;50.986;18.208;2023-09-30T01:14:43;9.70;;;7.60;;
57303;SDS011;43150;50.986;18.208;2023-09-30T01:17:09;10.10;;;7.60;;
57303;SDS011;43150;50.986;18.208;2023-09-30T01:19:34;9.80;;;7.80;;
57303;SDS011;43150;50.986;18.208;2023-09-30T01:22:00;9.40;;;7.70;;
57303;SDS011;43150;50.986;18.208;2023-09-30T01:24:31;13.30;;;7.40;;
57303;SDS011;43150;50.986;18.208;2023-09-30T01:27:05;13.40;;;8.70;;
57303;SDS011;43150;50.986;18.208;2023-09-30T01:29:31;10.50;;;8.60;;
57303;SDS011;43150;50.986;18.208;2023-09-30T01:31:56;10.70;;;8.70;;
57303;SDS011;43150;50.986;18.208;2023-09-30T01:34:21;11.60;;;8.50;;
57303;SDS011;43150;50.986;18.208;2023-09-30T01:36:47;12.80;;;8.80;;
57303;SDS011;43150;50.986;18.208;2023-09-30T01:39:12;11.00;;;8.90;;
57303;SDS011;43150;50.986;18.208;2023-09-30T01:41:39;13.80;;;9.70;;
57303;SDS011;43150;50.986;18.208;2023-09-30T01:44:04;12.40;;;9.80;;
57303;SDS011;43150;50.986;18.208;2023-09-30T01:46:30;11.00;;;9.80;;
57303;SDS011;43150;50.986;18.208;2023-09-30T01:48:55;12.30;;;9.00;;
57303;SDS011;43150;50.986;18.208;2023-09-30T01:51:21;11.70;;;9.30;;
57303;SDS011;43150;50.986;18.208;2023-09-30T01:53:47;12.90;;;9.50;;
57303;SDS011;43150;50.986;18.208;2023-09-30T01:56:13;11.80;;;10.10;;
57303;SDS011;43150;50.986;18.208;2023-09-30T01:58:38;13.10;;;9.70;;
57303;SDS011;43150;50.986;18.208;2023-09-30T02:01:04;13.10;;;10.40;;
57303;SDS011;43150;50.986;18.208;2023-09-30T02:03:30;11.60;;;10.20;;
57303;SDS011;43150;50.986;18.208;2023-09-30T02:05:56;14.70;;;10.40;;
57303;SDS011;43150;50.986;18.208;2023-09-30T02:08:22;13.40;;;10.60;;
57303;SDS011;43150;50.986;18.208;2023-09-30T02:10:47;12.30;;;10.60;;
57303;SDS011;43150;50.986;18.208;2023-09-30T02:13:13;13.20;;;10.50;;
57303;SDS011;43150;50.986;18.208;2023-09-30T02:15:42;13.00;;;10.90;;
57303;SDS011;43150;50.986;18.208;2023-09-30T02:18:08;13.90;;;11.10;;
57303;SDS011;43150;50.986;18.208;2023-09-30T02:20:34;12.70;;;11.30;;
57303;SDS011;43150;50.986;18.208;2023-09-30T02:23:08;13.30;;;11.70;;
57303;SDS011;43150;50.986;18.208;2023-09-30T02:25:38;14.10;;;12.40;;
57303;SDS011;43150;50.986;18.208;2023-09-30T02:28:06;13.00;;;11.40;;
57303;SDS011;43150;50.986;18.208;2023-09-30T02:30:32;12.20;;;11.00;;
57303;SDS011;43150;50.986;18.208;2023-09-30T02:32:57;13.30;;;12.00;;
57303;SDS011;43150;50.986;18.208;2023-09-30T02:35:23;14.90;;;12.10;;
57303;SDS011;43150;50.986;18.208;2023-09-30T02:37:49;12.70;;;11.30;;
57303;SDS011;43150;50.986;18.208;2023-09-30T02:40:15;13.00;;;11.60;;
57303;SDS011;43150;50.986;18.208;2023-09-30T02:42:42;13.10;;;11.30;;
57303;SDS011;43150;50.986;18.208;2023-09-30T02:45:08;13.60;;;11.90;;
57303;SDS011;43150;50.986;18.208;2023-09-30T02:47:34;13.40;;;11.30;;
57303;SDS011;43150;50.986;18.208;2023-09-30T02:50:00;12.20;;;11.00;;
57303;SDS011;43150;50.986;18.208;2023-09-30T02:52:26;12.90;;;10.40;;
57303;SDS011;43150;50.986;18.208;2023-09-30T02:54:52;14.30;;;11.80;;
57303;SDS011;43150;50.986;18.208;2023-09-30T02:57:18;13.60;;;11.80;;
57303;SDS011;43150;50.986;18.208;2023-09-30T02:59:44;13.30;;;12.00;;
57303;SDS011;43150;50.986;18.208;2023-09-30T03:02:10;13.20;;;11.90;;
57303;SDS011;43150;50.986;18.208;2023-09-30T03:04:36;14.20;;;12.80;;
57303;SDS011;43150;50.986;18.208;2023-09-30T03:07:02;14.60;;;13.20;;
57303;SDS011;43150;50.986;18.208;2023-09-30T03:09:27;15.80;;;13.50;;
57303;SDS011;43150;50.986;18.208;2023-09-30T03:11:53;14.40;;;13.00;;
57303;SDS011;43150;50.986;18.208;2023-09-30T03:14:21;16.20;;;14.70;;
57303;SDS011;43150;50.986;18.208;2023-09-30T03:16:50;17.50;;;15.90;;
57303;SDS011;43150;50.986;18.208;2023-09-30T03:19:16;20.10;;;18.20;;
57303;SDS011;43150;50.986;18.208;2023-09-30T03:21:42;16.10;;;14.60;;
57303;SDS011;43150;50.986;18.208;2023-09-30T03:24:07;17.00;;;15.20;;
57303;SDS011;43150;50.986;18.208;2023-09-30T03:26:33;16.50;;;14.90;;
57303;SDS011;43150;50.986;18.208;2023-09-30T03:28:58;16.40;;;14.70;;
57303;SDS011;43150;50.986;18.208;2023-09-30T03:31:27;16.20;;;14.60;;
57303;SDS011;43150;50.986;18.208;2023-09-30T03:33:52;16.30;;;14.70;;
57303;SDS011;43150;50.986;18.208;2023-09-30T03:36:24;16.40;;;14.90;;
57303;SDS011;43150;50.986;18.208;2023-09-30T03:38:53;16.10;;;14.40;;
57303;SDS011;43150;50.986;18.208;2023-09-30T03:41:20;16.20;;;14.60;;
57303;SDS011;43150;50.986;18.208;2023-09-30T03:43:45;16.00;;;14.50;;
57303;SDS011;43150;50.986;18.208;2023-09-30T03:46:10;15.60;;;14.20;;
57303;SDS011;43150;50.986;18.208;2023-09-30T03:48:37;15.10;;;13.70;;
57303;SDS011;43150;50.986;18.208;2023-09-30T03:51:13;16.80;;;15.10;;
57303;SDS011;43150;50.986;18.208;2023-09-30T03:53:49;14.10;;;12.80;;
57303;SDS011;43150;50.986;18.208;2023-09-30T03:56:17;16.10;;;14.70;;
57303;SDS011;43150;50.986;18.208;2023-09-30T03:58:43;16.10;;;14.50;;
57303;SDS011;43150;50.986;18.208;2023-09-30T04:01:10;17.00;;;15.30;;
57303;SDS011;43150;50.986;18.208;2023-09-30T04:03:48;16.30;;;14.70;;
57303;SDS011;43150;50.986;18.208;2023-09-30T04:06:14;17.50;;;15.80;;
57303;SDS011;43150;50.986;18.208;2023-09-30T04:08:44;17.00;;;15.40;;
57303;SDS011;43150;50.986;18.208;2023-09-30T04:11:09;17.20;;;15.60;;
57303;SDS011;43150;50.986;18.208;2023-09-30T04:13:40;17.60;;;16.00;;
57303;SDS011;43150;50.986;18.208;2023-09-30T04:16:05;18.20;;;16.50;;
57303;SDS011;43150;50.986;18.208;2023-09-30T04:18:31;19.00;;;17.10;;
57303;SDS011;43150;50.986;18.208;2023-09-30T04:20:56;17.10;;;15.60;;
57303;SDS011;43150;50.986;18.208;2023-09-30T04:23:22;18.70;;;17.00;;
57303;SDS011;43150;50.986;18.208;2023-09-30T04:25:48;19.30;;;17.30;;
57303;SDS011;43150;50.986;18.208;2023-09-30T04:28:15;19.60;;;17.70;;
57303;SDS011;43150;50.986;18.208;2023-09-30T04:30:41;17.60;;;15.90;;
57303;SDS011;43150;50.986;18.208;2023-09-30T04:33:07;17.60;;;15.90;;
57303;SDS011;43150;50.986;18.208;2023-09-30T04:35:33;17.30;;;15.60;;
57303;SDS011;43150;50.986;18.208;2023-09-30T04:38:00;17.40;;;15.70;;
57303;SDS011;43150;50.986;18.208;2023-09-30T04:40:26;18.40;;;16.60;;
57303;SDS011;43150;50.986;18.208;2023-09-30T04:42:52;17.50;;;15.70;;
57303;SDS011;43150;50.986;18.208;2023-09-30T04:45:20;18.20;;;16.50;;
57303;SDS011;43150;50.986;18.208;2023-09-30T04:47:46;16.50;;;15.00;;
57303;SDS011;43150;50.986;18.208;2023-09-30T04:50:14;17.00;;;15.30;;
57303;SDS011;43150;50.986;18.208;2023-09-30T04:52:41;15.70;;;14.10;;
57303;SDS011;43150;50.986;18.208;2023-09-30T04:55:07;15.60;;;14.10;;
57303;SDS011;43150;50.986;18.208;2023-09-30T04:57:37;15.60;;;14.00;;
57303;SDS011;43150;50.986;18.208;2023-09-30T05:00:03;17.70;;;15.40;;
57303;SDS011;43150;50.986;18.208;2023-09-30T05:02:38;16.20;;;14.70;;
57303;SDS011;43150;50.986;18.208;2023-09-30T05:05:04;18.80;;;16.90;;
57303;SDS011;43150;50.986;18.208;2023-09-30T05:07:33;18.40;;;16.70;;
57303;SDS011;43150;50.986;18.208;2023-09-30T05:09:59;17.70;;;16.00;;
57303;SDS011;43150;50.986;18.208;2023-09-30T05:12:27;19.70;;;17.80;;
57303;SDS011;43150;50.986;18.208;2023-09-30T05:14:53;20.00;;;18.10;;
57303;SDS011;43150;50.986;18.208;2023-09-30T05:17:20;20.30;;;18.40;;
57303;SDS011;43150;50.986;18.208;2023-09-30T05:19:47;17.90;;;16.20;;
57303;SDS011;43150;50.986;18.208;2023-09-30T05:22:12;17.60;;;15.90;;
57303;SDS011;43150;50.986;18.208;2023-09-30T05:24:38;15.00;;;13.60;;
57303;SDS011;43150;50.986;18.208;2023-09-30T05:27:04;15.30;;;13.70;;
57303;SDS011;43150;50.986;18.208;2023-09-30T05:29:30;15.60;;;12.40;;
57303;SDS011;43150;50.986;18.208;2023-09-30T05:31:58;17.00;;;12.50;;
57303;SDS011;43150;50.986;18.208;2023-09-30T05:34:26;13.30;;;12.00;;
57303;SDS011;43150;50.986;18.208;2023-09-30T05:36:53;14.20;;;12.70;;
57303;SDS011;43150;50.986;18.208;2023-09-30T05:39:18;13.80;;;12.00;;
57303;SDS011;43150;50.986;18.208;2023-09-30T05:41:46;14.50;;;13.10;;
57303;SDS011;43150;50.986;18.208;2023-09-30T05:44:14;13.80;;;12.50;;
57303;SDS011;43150;50.986;18.208;2023-09-30T05:46:40;13.60;;;12.30;;
57303;SDS011;43150;50.986;18.208;2023-09-30T05:49:05;14.30;;;11.70;;
57303;SDS011;43150;50.986;18.208;2023-09-30T05:51:37;14.70;;;13.30;;
57303;SDS011;43150;50.986;18.208;2023-09-30T05:54:02;14.40;;;12.80;;
57303;SDS011;43150;50.986;18.208;2023-09-30T05:56:30;13.90;;;12.50;;
57303;SDS011;43150;50.986;18.208;2023-09-30T05:58:56;13.50;;;12.20;;
57303;SDS011;43150;50.986;18.208;2023-09-30T06:04:07;13.70;;;12.30;;
57303;SDS011;43150;50.986;18.208;2023-09-30T06:06:33;14.00;;;12.70;;
57303;SDS011;43150;50.986;18.208;2023-09-30T06:08:59;14.00;;;12.60;;
57303;SDS011;43150;50.986;18.208;2023-09-30T06:11:24;13.30;;;11.60;;
57303;SDS011;43150;50.986;18.208;2023-09-30T06:13:50;12.40;;;10.90;;
57303;SDS011;43150;50.986;18.208;2023-09-30T06:16:16;12.40;;;11.10;;
57303;SDS011;43150;50.986;18.208;2023-09-30T06:18:43;12.00;;;10.80;;
57303;SDS011;43150;50.986;18.208;2023-09-30T06:21:10;12.20;;;10.20;;
57303;SDS011;43150;50.986;18.208;2023-09-30T06:23:36;11.90;;;10.60;;
57303;SDS011;43150;50.986;18.208;2023-09-30T06:26:01;13.10;;;10.30;;
57303;SDS011;43150;50.986;18.208;2023-09-30T06:28:28;11.30;;;10.10;;
57303;SDS011;43150;50.986;18.208;2023-09-30T06:30:56;10.80;;;9.70;;
57303;SDS011;43150;50.986;18.208;2023-09-30T06:33:39;10.70;;;9.00;;
57303;SDS011;43150;50.986;18.208;2023-09-30T06:36:12;11.00;;;8.70;;
57303;SDS011;43150;50.986;18.208;2023-09-30T06:38:43;11.70;;;9.50;;
57303;SDS011;43150;50.986;18.208;2023-09-30T06:41:09;12.00;;;9.60;;
57303;SDS011;43150;50.986;18.208;2023-09-30T06:43:34;10.40;;;9.30;;
57303;SDS011;43150;50.986;18.208;2023-09-30T06:46:07;10.60;;;9.10;;
57303;SDS011;43150;50.986;18.208;2023-09-30T06:48:34;10.80;;;9.50;;
57303;SDS011;43150;50.986;18.208;2023-09-30T06:51:00;10.00;;;9.00;;
57303;SDS011;43150;50.986;18.208;2023-09-30T06:53:28;11.40;;;9.20;;
57303;SDS011;43150;50.986;18.208;2023-09-30T06:55:54;10.80;;;9.30;;
57303;SDS011;43150;50.986;18.208;2023-09-30T06:58:19;10.80;;;9.30;;
57303;SDS011;43150;50.986;18.208;2023-09-30T07:00:51;13.40;;;9.60;;
57303;SDS011;43150;50.986;18.208;2023-09-30T07:03:17;11.70;;;10.00;;
57303;SDS011;43150;50.986;18.208;2023-09-30T07:05:42;11.90;;;8.70;;
57303;SDS011;43150;50.986;18.208;2023-09-30T07:08:09;9.80;;;8.80;;
57303;SDS011;43150;50.986;18.208;2023-09-30T07:10:34;11.10;;;9.70;;
57303;SDS011;43150;50.986;18.208;2023-09-30T07:13:02;9.90;;;8.70;;
57303;SDS011;43150;50.986;18.208;2023-09-30T07:15:27;12.20;;;9.90;;
57303;SDS011;43150;50.986;18.208;2023-09-30T07:17:53;12.00;;;10.20;;
57303;SDS011;43150;50.986;18.208;2023-09-30T07:20:18;10.40;;;9.30;;
57303;SDS011;43150;50.986;18.208;2023-09-30T07:22:46;9.40;;;8.30;;
57303;SDS011;43150;50.986;18.208;2023-09-30T07:25:12;9.40;;;7.10;;
57303;SDS011;43150;50.986;18.208;2023-09-30T07:27:39;10.40;;;7.30;;
57303;SDS011;43150;50.986;18.208;2023-09-30T07:30:05;12.20;;;8.20;;
57303;SDS011;43150;50.986;18.208;2023-09-30T07:32:32;9.30;;;7.90;;
57303;SDS011;43150;50.986;18.208;2023-09-30T07:34:57;13.50;;;8.10;;
57303;SDS011;43150;50.986;18.208;2023-09-30T07:37:23;11.70;;;8.20;;
57303;SDS011;43150;50.986;18.208;2023-09-30T07:39:49;9.60;;;7.60;;
57303;SDS011;43150;50.986;18.208;2023-09-30T07:42:15;11.60;;;8.20;;
57303;SDS011;43150;50.986;18.208;2023-09-30T07:44:42;10.10;;;7.00;;
57303;SDS011;43150;50.986;18.208;2023-09-30T07:47:07;8.70;;;6.80;;
57303;SDS011;43150;50.986;18.208;2023-09-30T07:49:34;9.40;;;7.20;;
57303;SDS011;43150;50.986;18.208;2023-09-30T07:51:59;8.50;;;7.00;;
57303;SDS011;43150;50.986;18.208;2023-09-30T07:54:25;11.30;;;8.00;;
57303;SDS011;43150;50.986;18.208;2023-09-30T07:56:50;10.20;;;7.90;;
57303;SDS011;43150;50.986;18.208;2023-09-30T07:59:15;9.60;;;8.30;;
57303;SDS011;43150;50.986;18.208;2023-09-30T08:01:41;10.00;;;8.10;;
57303;SDS011;43150;50.986;18.208;2023-09-30T08:04:07;10.60;;;8.10;;
57303;SDS011;43150;50.986;18.208;2023-09-30T08:06:32;8.80;;;7.90;;
57303;SDS011;43150;50.986;18.208;2023-09-30T08:08:58;8.70;;;7.80;;
57303;SDS011;43150;50.986;18.208;2023-09-30T08:11:23;11.50;;;8.50;;
57303;SDS011;43150;50.986;18.208;2023-09-30T08:13:53;10.50;;;8.40;;
57303;SDS011;43150;50.986;18.208;2023-09-30T08:16:18;9.10;;;8.00;;
57303;SDS011;43150;50.986;18.208;2023-09-30T08:18:44;14.10;;;9.00;;
57303;SDS011;43150;50.986;18.208;2023-09-30T08:21:10;10.30;;;9.20;;
57303;SDS011;43150;50.986;18.208;2023-09-30T08:23:39;12.20;;;9.50;;
57303;SDS011;43150;50.986;18.208;2023-09-30T08:26:05;11.60;;;9.10;;
57303;SDS011;43150;50.986;18.208;2023-09-30T08:28:30;10.80;;;8.80;;
57303;SDS011;43150;50.986;18.208;2023-09-30T08:31:01;13.30;;;8.90;;
57303;SDS011;43150;50.986;18.208;2023-09-30T08:33:27;12.60;;;8.50;;
57303;SDS011;43150;50.986;18.208;2023-09-30T08:35:56;11.30;;;8.10;;
57303;SDS011;43150;50.986;18.208;2023-09-30T08:38:21;14.10;;;8.40;;
57303;SDS011;43150;50.986;18.208;2023-09-30T08:40:47;13.00;;;8.00;;
57303;SDS011;43150;50.986;18.208;2023-09-30T08:43:14;12.70;;;7.60;;
57303;SDS011;43150;50.986;18.208;2023-09-30T08:45:40;12.50;;;7.50;;
57303;SDS011;43150;50.986;18.208;2023-09-30T08:48:09;8.40;;;6.90;;
57303;SDS011;43150;50.986;18.208;2023-09-30T08:50:35;7.80;;;6.80;;
57303;SDS011;43150;50.986;18.208;2023-09-30T08:53:01;8.80;;;6.50;;
57303;SDS011;43150;50.986;18.208;2023-09-30T08:55:29;9.30;;;6.60;;
57303;SDS011;43150;50.986;18.208;2023-09-30T08:57:54;11.10;;;5.90;;
57303;SDS011;43150;50.986;18.208;2023-09-30T09:00:22;6.80;;;5.00;;
57303;SDS011;43150;50.986;18.208;2023-09-30T09:02:47;7.10;;;4.50;;
57303;SDS011;43150;50.986;18.208;2023-09-30T09:05:15;9.10;;;4.80;;
57303;SDS011;43150;50.986;18.208;2023-09-30T09:07:42;8.40;;;5.10;;
57303;SDS011;43150;50.986;18.208;2023-09-30T09:10:09;8.60;;;4.40;;
57303;SDS011;43150;50.986;18.208;2023-09-30T09:12:38;8.60;;;4.60;;
57303;SDS011;43150;50.986;18.208;2023-09-30T09:15:05;6.90;;;4.60;;
57303;SDS011;43150;50.986;18.208;2023-09-30T09:17:44;8.90;;;4.80;;
57303;SDS011;43150;50.986;18.208;2023-09-30T09:20:10;7.20;;;4.50;;
57303;SDS011;43150;50.986;18.208;2023-09-30T09:22:38;9.50;;;4.60;;
57303;SDS011;43150;50.986;18.208;2023-09-30T09:25:04;6.40;;;4.20;;
57303;SDS011;43150;50.986;18.208;2023-09-30T09:27:32;7.70;;;4.70;;
57303;SDS011;43150;50.986;18.208;2023-09-30T09:29:58;8.60;;;4.30;;
57303;SDS011;43150;50.986;18.208;2023-09-30T09:32:38;6.10;;;3.80;;
57303;SDS011;43150;50.986;18.208;2023-09-30T09:35:04;6.90;;;4.00;;
57303;SDS011;43150;50.986;18.208;2023-09-30T09:37:31;9.80;;;4.10;;
57303;SDS011;43150;50.986;18.208;2023-09-30T09:39:57;8.80;;;4.00;;
57303;SDS011;43150;50.986;18.208;2023-09-30T09:42:29;7.30;;;3.20;;
57303;SDS011;43150;50.986;18.208;2023-09-30T09:45:05;5.80;;;2.80;;
57303;SDS011;43150;50.986;18.208;2023-09-30T09:47:33;6.30;;;3.50;;
57303;SDS011;43150;50.986;18.208;2023-09-30T09:49:59;7.70;;;3.40;;
57303;SDS011;43150;50.986;18.208;2023-09-30T09:52:27;6.80;;;3.10;;
57303;SDS011;43150;50.986;18.208;2023-09-30T09:54:53;6.90;;;2.90;;
57303;SDS011;43150;50.986;18.208;2023-09-30T09:57:19;8.60;;;3.00;;
57303;SDS011;43150;50.986;18.208;2023-09-30T09:59:45;6.90;;;2.60;;
57303;SDS011;43150;50.986;18.208;2023-09-30T10:02:15;6.20;;;2.30;;
57303;SDS011;43150;50.986;18.208;2023-09-30T10:04:46;6.60;;;2.50;;
57303;SDS011;43150;50.986;18.208;2023-09-30T10:07:13;9.00;;;2.90;;
57303;SDS011;43150;50.986;18.208;2023-09-30T10:09:40;8.00;;;2.90;;
57303;SDS011;43150;50.986;18.208;2023-09-30T10:12:06;8.00;;;3.20;;
57303;SDS011;43150;50.986;18.208;2023-09-30T10:14:34;8.90;;;3.20;;
57303;SDS011;43150;50.986;18.208;2023-09-30T10:17:01;6.10;;;2.90;;
57303;SDS011;43150;50.986;18.208;2023-09-30T10:19:28;6.60;;;3.20;;
57303;SDS011;43150;50.986;18.208;2023-09-30T10:24:40;8.00;;;3.20;;
57303;SDS011;43150;50.986;18.208;2023-09-30T10:29:47;8.40;;;3.20;;
57303;SDS011;43150;50.986;18.208;2023-09-30T10:32:12;7.00;;;2.80;;
57303;SDS011;43150;50.986;18.208;2023-09-30T10:34:39;8.70;;;3.60;;
57303;SDS011;43150;50.986;18.208;2023-09-30T10:37:22;8.00;;;2.50;;
57303;SDS011;43150;50.986;18.208;2023-09-30T10:40:00;6.40;;;2.90;;
57303;SDS011;43150;50.986;18.208;2023-09-30T10:42:48;3.60;;;2.10;;
57303;SDS011;43150;50.986;18.208;2023-09-30T10:50:49;6.00;;;2.30;;
57303;SDS011;43150;50.986;18.208;2023-09-30T10:53:15;6.40;;;2.30;;
57303;SDS011;43150;50.986;18.208;2023-09-30T10:55:41;10.60;;;2.60;;
57303;SDS011;43150;50.986;18.208;2023-09-30T10:58:07;6.50;;;2.20;;
57303;SDS011;43150;50.986;18.208;2023-09-30T11:00:33;6.20;;;2.40;;
57303;SDS011;43150;50.986;18.208;2023-09-30T11:02:59;6.40;;;2.30;;
57303;SDS011;43150;50.986;18.208;2023-09-30T11:05:27;5.90;;;2.30;;
57303;SDS011;43150;50.986;18.208;2023-09-30T11:07:53;4.60;;;2.00;;
57303;SDS011;43150;50.986;18.208;2023-09-30T11:10:22;5.40;;;1.80;;
57303;SDS011;43150;50.986;18.208;2023-09-30T11:12:57;5.00;;;1.80;;
57303;SDS011;43150;50.986;18.208;2023-09-30T11:15:23;4.40;;;1.80;;
57303;SDS011;43150;50.986;18.208;2023-09-30T11:17:49;6.80;;;2.20;;
57303;SDS011;43150;50.986;18.208;2023-09-30T11:20:18;4.20;;;1.80;;
57303;SDS011;43150;50.986;18.208;2023-09-30T11:22:47;6.10;;;2.30;;
57303;SDS011;43150;50.986;18.208;2023-09-30T11:25:16;6.10;;;2.30;;
57303;SDS011;43150;50.986;18.208;2023-09-30T11:27:43;6.40;;;2.20;;
57303;SDS011;43150;50.986;18.208;2023-09-30T11:30:09;5.00;;;2.00;;
57303;SDS011;43150;50.986;18.208;2023-09-30T11:32:34;5.10;;;2.10;;
57303;SDS011;43150;50.986;18.208;2023-09-30T11:35:02;4.80;;;1.90;;
57303;SDS011;43150;50.986;18.208;2023-09-30T11:37:34;7.70;;;2.40;;
57303;SDS011;43150;50.986;18.208;2023-09-30T11:40:08;7.10;;;1.90;;
57303;SDS011;43150;50.986;18.208;2023-09-30T11:42:34;5.90;;;2.40;;
57303;SDS011;43150;50.986;18.208;2023-09-30T11:45:02;3.50;;;1.50;;
57303;SDS011;43150;50.986;18.208;2023-09-30T11:47:28;4.80;;;1.90;;
57303;SDS011;43150;50.986;18.208;2023-09-30T11:49:55;7.50;;;2.10;;
57303;SDS011;43150;50.986;18.208;2023-09-30T11:52:25;5.60;;;1.90;;
57303;SDS011;43150;50.986;18.208;2023-09-30T11:54:52;4.90;;;1.90;;
57303;SDS011;43150;50.986;18.208;2023-09-30T11:57:18;4.50;;;2.00;;
57303;SDS011;43150;50.986;18.208;2023-09-30T11:59:45;6.10;;;2.00;;
57303;SDS011;43150;50.986;18.208;2023-09-30T12:02:14;5.60;;;2.20;;
57303;SDS011;43150;50.986;18.208;2023-09-30T12:04:40;5.90;;;2.50;;
57303;SDS011;43150;50.986;18.208;2023-09-30T12:07:06;6.90;;;2.20;;
57303;SDS011;43150;50.986;18.208;2023-09-30T12:09:34;5.80;;;2.20;;
57303;SDS011;43150;50.986;18.208;2023-09-30T12:12:03;5.20;;;2.10;;
57303;SDS011;43150;50.986;18.208;2023-09-30T12:14:29;5.40;;;2.00;;
57303;SDS011;43150;50.986;18.208;2023-09-30T12:16:56;6.30;;;2.20;;
57303;SDS011;43150;50.986;18.208;2023-09-30T12:19:21;4.20;;;2.00;;
57303;SDS011;43150;50.986;18.208;2023-09-30T12:21:47;5.90;;;2.40;;
57303;SDS011;43150;50.986;18.208;2023-09-30T12:24:13;8.20;;;2.20;;
57303;SDS011;43150;50.986;18.208;2023-09-30T12:26:44;6.00;;;2.20;;
57303;SDS011;43150;50.986;18.208;2023-09-30T12:29:17;7.90;;;2.70;;
57303;SDS011;43150;50.986;18.208;2023-09-30T12:31:46;5.50;;;2.50;;
57303;SDS011;43150;50.986;18.208;2023-09-30T12:34:11;7.00;;;2.60;;
57303;SDS011;43150;50.986;18.208;2023-09-30T12:36:38;6.40;;;2.50;;
57303;SDS011;43150;50.986;18.208;2023-09-30T12:39:03;5.40;;;2.20;;
57303;SDS011;43150;50.986;18.208;2023-09-30T12:41:42;6.20;;;2.30;;
57303;SDS011;43150;50.986;18.208;2023-09-30T12:44:08;8.30;;;2.60;;
57303;SDS011;43150;50.986;18.208;2023-09-30T12:46:34;6.30;;;2.10;;
57303;SDS011;43150;50.986;18.208;2023-09-30T12:49:02;6.80;;;2.40;;
57303;SDS011;43150;50.986;18.208;2023-09-30T12:51:28;6.80;;;2.40;;
57303;SDS011;43150;50.986;18.208;2023-09-30T12:53:53;6.50;;;2.30;;
57303;SDS011;43150;50.986;18.208;2023-09-30T12:56:19;5.60;;;2.40;;
57303;SDS011;43150;50.986;18.208;2023-09-30T12:58:45;6.30;;;2.50;;
57303;SDS011;43150;50.986;18.208;2023-09-30T13:01:10;7.40;;;2.70;;
57303;SDS011;43150;50.986;18.208;2023-09-30T13:03:37;6.50;;;2.20;;
57303;SDS011;43150;50.986;18.208;2023-09-30T13:06:03;7.60;;;2.50;;
57303;SDS011;43150;50.986;18.208;2023-09-30T13:08:29;8.20;;;2.50;;
57303;SDS011;43150;50.986;18.208;2023-09-30T13:11:01;4.60;;;2.30;;
57303;SDS011;43150;50.986;18.208;2023-09-30T13:13:30;7.20;;;2.50;;
57303;SDS011;43150;50.986;18.208;2023-09-30T13:16:01;7.00;;;2.70;;
57303;SDS011;43150;50.986;18.208;2023-09-30T13:18:27;6.00;;;2.40;;
57303;SDS011;43150;50.986;18.208;2023-09-30T13:20:53;8.80;;;2.60;;
57303;SDS011;43150;50.986;18.208;2023-09-30T13:23:19;8.10;;;3.00;;
57303;SDS011;43150;50.986;18.208;2023-09-30T13:25:44;10.00;;;2.80;;
57303;SDS011;43150;50.986;18.208;2023-09-30T13:28:10;7.60;;;2.80;;
57303;SDS011;43150;50.986;18.208;2023-09-30T13:30:35;5.70;;;2.40;;
57303;SDS011;43150;50.986;18.208;2023-09-30T13:33:01;6.10;;;2.70;;
57303;SDS011;43150;50.986;18.208;2023-09-30T13:35:27;7.30;;;2.60;;
57303;SDS011;43150;50.986;18.208;2023-09-30T13:37:52;7.30;;;2.60;;
57303;SDS011;43150;50.986;18.208;2023-09-30T13:40:18;6.30;;;2.70;;
57303;SDS011;43150;50.986;18.208;2023-09-30T13:42:44;6.70;;;2.90;;
57303;SDS011;43150;50.986;18.208;2023-09-30T13:45:10;7.30;;;3.00;;
57303;SDS011;43150;50.986;18.208;2023-09-30T13:47:36;8.20;;;2.90;;
57303;SDS011;43150;50.986;18.208;2023-09-30T13:50:02;6.80;;;2.80;;
57303;SDS011;43150;50.986;18.208;2023-09-30T13:52:29;6.90;;;2.70;;
57303;SDS011;43150;50.986;18.208;2023-09-30T13:54:54;7.20;;;3.00;;
57303;SDS011;43150;50.986;18.208;2023-09-30T13:57:20;7.70;;;3.00;;
57303;SDS011;43150;50.986;18.208;2023-09-30T13:59:46;8.10;;;2.60;;
57303;SDS011;43150;50.986;18.208;2023-09-30T14:02:14;8.30;;;2.80;;
57303;SDS011;43150;50.986;18.208;2023-09-30T14:04:40;8.20;;;3.20;;
57303;SDS011;43150;50.986;18.208;2023-09-30T14:07:05;8.10;;;2.80;;
57303;SDS011;43150;50.986;18.208;2023-09-30T14:09:34;7.70;;;2.80;;
57303;SDS011;43150;50.986;18.208;2023-09-30T14:12:00;6.60;;;2.60;;
57303;SDS011;43150;50.986;18.208;2023-09-30T14:14:26;5.30;;;2.80;;
57303;SDS011;43150;50.986;18.208;2023-09-30T14:16:52;5.80;;;2.70;;
57303;SDS011;43150;50.986;18.208;2023-09-30T14:19:17;8.50;;;2.40;;
57303;SDS011;43150;50.986;18.208;2023-09-30T14:21:43;8.90;;;3.00;;
57303;SDS011;43150;50.986;18.208;2023-09-30T14:24:09;6.20;;;2.70;;
57303;SDS011;43150;50.986;18.208;2023-09-30T14:26:34;8.40;;;2.90;;
57303;SDS011;43150;50.986;18.208;2023-09-30T14:28:59;5.30;;;2.60;;
57303;SDS011;43150;50.986;18.208;2023-09-30T14:31:25;6.50;;;2.80;;
57303;SDS011;43150;50.986;18.208;2023-09-30T14:33:51;6.20;;;2.50;;
57303;SDS011;43150;50.986;18.208;2023-09-30T14:36:17;7.60;;;2.70;;